Time;durP1;ratioP1;P1;durP2;ratioP2;P2;SDS_P1;SDS_P2;PMS_P1;PMS_P2;Temp;Humidity;BMP_temperature;BMP_pressure;BME280_temperature;BME280_humidity;BME280_pressure;Samples;Min_cycle;Max_cycle;Signal;HPM_P1;HPM_P2
2021/12/20 00:01:11;;;;;;;;;23.25;22.75;;;;;;;;5050559;28;45622;-59
2021/12/20 00:03:37;;;;;;;;;20.50;18.00;;;;;;;;5059875;28;45548;-59
2021/12/20 00:06:02;;;;;;;;;28.00;26.25;;;;;;;;5054285;28;46025;-59
2021/12/20 00:08:28;;;;;;;;;21.25;21.25;;;;;;;;5058399;27;45586;-59
2021/12/20 00:10:54;;;;;;;;;23.25;23.25;;;;;;;;5053212;28;45406;-60
2021/12/20 00:13:19;;;;;;;;;31.25;26.75;;;;;;;;5052958;28;45401;-60
2021/12/20 00:15:45;;;;;;;;;28.75;25.00;;;;;;;;5061537;27;45480;-59
2021/12/20 00:18:10;;;;;;;;;32.50;29.75;;;;;;;;5053344;28;45384;-60
2021/12/20 00:20:35;;;;;;;;;30.75;27.75;;;;;;;;5045905;28;45537;-58
2021/12/20 00:23:00;;;;;;;;;31.50;24.50;;;;;;;;5033509;28;45365;-59
2021/12/20 00:25:26;;;;;;;;;30.00;26.75;;;;;;;;5045457;28;45640;-60
2021/12/20 00:27:51;;;;;;;;;31.25;28.25;;;;;;;;5041100;28;46216;-60
2021/12/20 00:30:17;;;;;;;;;31.50;27.75;;;;;;;;5053336;28;45349;-60
2021/12/20 00:32:42;;;;;;;;;26.75;23.50;;;;;;;;5046282;28;45432;-59
2021/12/20 00:35:08;;;;;;;;;36.25;32.75;;;;;;;;5034871;28;51144;-59
2021/12/20 00:40:23;;;;;;;;;31.00;26.00;;;;;;;;5049182;28;45544;-60
2021/12/20 00:42:49;;;;;;;;;27.75;25.75;;;;;;;;5053095;28;45512;-60
2021/12/20 00:45:15;;;;;;;;;27.75;24.25;;;;;;;;5053886;28;45730;-59
2021/12/20 00:47:41;;;;;;;;;32.25;31.00;;;;;;;;5037200;28;46177;-59
2021/12/20 00:50:07;;;;;;;;;31.75;26.75;;;;;;;;5048319;28;45631;-59
2021/12/20 00:52:32;;;;;;;;;23.00;20.25;;;;;;;;5052873;28;45445;-60
2021/12/20 00:54:57;;;;;;;;;26.50;22.50;;;;;;;;5053448;28;45601;-60
2021/12/20 00:57:22;;;;;;;;;30.25;25.50;;;;;;;;5036076;28;45670;-58
2021/12/20 00:59:48;;;;;;;;;27.00;25.75;;;;;;;;5054592;28;45664;-59
2021/12/20 01:02:13;;;;;;;;;30.75;26.25;;;;;;;;5055106;28;45750;-59
2021/12/20 01:04:38;;;;;;;;;26.50;24.50;;;;;;;;5053771;28;47337;-58
2021/12/20 01:07:03;;;;;;;;;30.75;29.00;;;;;;;;5053585;28;45487;-58
2021/12/20 01:09:29;;;;;;;;;30.25;26.75;;;;;;;;5035365;28;45761;-59
2021/12/20 01:12:01;;;;;;;;;27.75;23.75;;;;;;;;5048215;28;45390;-60
2021/12/20 01:14:27;;;;;;;;;24.00;23.75;;;;;;;;5019198;28;49011;-60
2021/12/20 01:16:55;;;;;;;;;24.75;24.25;;;;;;;;5053326;28;45871;-59
2021/12/20 01:19:22;;;;;;;;;31.75;28.00;;;;;;;;5035842;28;45419;-60
2021/12/20 01:21:47;;;;;;;;;30.25;27.00;;;;;;;;5055153;28;45764;-60
2021/12/20 01:24:12;;;;;;;;;24.50;23.75;;;;;;;;5049356;28;46167;-60
2021/12/20 01:26:37;;;;;;;;;21.50;18.50;;;;;;;;5036219;28;46130;-60
2021/12/20 01:29:03;;;;;;;;;27.25;25.25;;;;;;;;5054409;28;45307;-60
2021/12/20 01:31:28;;;;;;;;;24.50;21.25;;;;;;;;5054959;28;45530;-60
2021/12/20 01:33:53;;;;;;;;;30.00;27.25;;;;;;;;5054663;28;46273;-60
2021/12/20 01:36:19;;;;;;;;;30.50;25.75;;;;;;;;5054839;28;45381;-59
2021/12/20 01:38:44;;;;;;;;;31.00;28.00;;;;;;;;5055302;28;45480;-60
2021/12/20 01:41:10;;;;;;;;;19.50;18.25;;;;;;;;5036174;28;45585;-59
2021/12/20 01:43:37;;;;;;;;;28.50;24.75;;;;;;;;5035526;28;47898;-60
2021/12/20 01:46:02;;;;;;;;;27.00;21.25;;;;;;;;5052591;28;45478;-59
2021/12/20 01:48:29;;;;;;;;;24.50;24.50;;;;;;;;5053054;28;45424;-59
2021/12/20 01:53:32;;;;;;;;;22.00;19.25;;;;;;;;5043782;28;45698;-59
2021/12/20 01:55:58;;;;;;;;;23.00;22.25;;;;;;;;5036960;28;46261;-60
2021/12/20 01:58:23;;;;;;;;;23.25;22.75;;;;;;;;5037953;28;45315;-59
2021/12/20 02:03:35;;;;;;;;;20.50;16.25;;;;;;;;5054476;28;46485;-60
2021/12/20 02:06:04;;;;;;;;;28.00;25.75;;;;;;;;5036003;28;45879;-60
2021/12/20 02:08:30;;;;;;;;;26.25;25.25;;;;;;;;5054976;28;45341;-59
2021/12/20 02:11:00;;;;;;;;;28.00;22.75;;;;;;;;5053768;28;45516;-59
2021/12/20 02:13:30;;;;;;;;;33.00;28.25;;;;;;;;5054162;28;45926;-59
2021/12/20 02:15:58;;;;;;;;;28.75;25.75;;;;;;;;5054245;28;45548;-60
2021/12/20 02:18:23;;;;;;;;;30.00;29.75;;;;;;;;5054253;28;45417;-59
2021/12/20 02:20:49;;;;;;;;;26.00;23.75;;;;;;;;5054156;28;45615;-59
2021/12/20 02:23:14;;;;;;;;;23.00;22.25;;;;;;;;5054643;28;45860;-59
2021/12/20 02:25:39;;;;;;;;;27.00;23.00;;;;;;;;5053867;28;45547;-59
2021/12/20 02:28:07;;;;;;;;;27.50;25.25;;;;;;;;5035731;28;45582;-59
2021/12/20 02:38:27;;;;;;;;;31.25;29.00;;;;;;;;5051740;28;46054;-59
2021/12/20 02:40:57;;;;;;;;;29.00;26.50;;;;;;;;5053687;28;45735;-59
2021/12/20 02:43:22;;;;;;;;;28.00;28.00;;;;;;;;5035442;28;48503;-59
2021/12/20 02:45:48;;;;;;;;;30.25;28.25;;;;;;;;5053266;28;45423;-58
2021/12/20 02:48:13;;;;;;;;;34.50;30.00;;;;;;;;5053370;28;45724;-59
2021/12/20 02:50:38;;;;;;;;;35.00;27.75;;;;;;;;5053501;28;45430;-59
2021/12/20 02:53:03;;;;;;;;;34.00;32.25;;;;;;;;5052301;28;46262;-59
2021/12/20 02:55:28;;;;;;;;;35.00;31.00;;;;;;;;5053081;28;45596;-61
2021/12/20 02:57:54;;;;;;;;;32.25;28.25;;;;;;;;5068732;27;45546;-60
2021/12/20 03:00:19;;;;;;;;;35.00;28.00;;;;;;;;5052824;28;45426;-59
2021/12/20 03:02:44;;;;;;;;;37.25;34.00;;;;;;;;5053272;28;45548;-60
2021/12/20 03:05:10;;;;;;;;;45.50;39.75;;;;;;;;5053915;28;45918;-59
2021/12/20 03:07:44;;;;;;;;;40.25;31.25;;;;;;;;5053675;28;45387;-59
2021/12/20 03:10:10;;;;;;;;;42.50;38.00;;;;;;;;5053070;28;45463;-59
2021/12/20 03:12:35;;;;;;;;;51.00;38.75;;;;;;;;5052989;28;45513;-59
2021/12/20 03:15:08;;;;;;;;;38.25;34.00;;;;;;;;5053417;28;45492;-59
2021/12/20 03:17:34;;;;;;;;;37.25;36.00;;;;;;;;5036251;28;45507;-59
2021/12/20 03:19:59;;;;;;;;;43.50;38.50;;;;;;;;5052736;28;45371;-59
2021/12/20 03:22:24;;;;;;;;;39.75;33.75;;;;;;;;5052644;28;46364;-59
2021/12/20 03:24:49;;;;;;;;;49.75;39.75;;;;;;;;5034419;28;45652;-60
2021/12/20 03:27:15;;;;;;;;;44.00;37.25;;;;;;;;5053543;28;45937;-59
2021/12/20 03:29:40;;;;;;;;;39.50;36.50;;;;;;;;5053933;28;45460;-59
2021/12/20 03:32:05;;;;;;;;;44.75;40.50;;;;;;;;5021226;28;47802;-59
2021/12/20 03:34:31;;;;;;;;;45.25;38.75;;;;;;;;5052844;28;45441;-59
2021/12/20 03:36:56;;;;;;;;;46.75;39.50;;;;;;;;5053326;28;45430;-58
2021/12/20 03:39:21;;;;;;;;;44.75;39.50;;;;;;;;5053239;28;45385;-59
2021/12/20 03:41:47;;;;;;;;;54.50;44.50;;;;;;;;5034930;28;48548;-59
2021/12/20 03:44:12;;;;;;;;;47.25;42.00;;;;;;;;5035205;28;45411;-59
2021/12/20 03:46:37;;;;;;;;;42.25;34.75;;;;;;;;5067679;28;45403;-59
2021/12/20 03:49:04;;;;;;;;;47.50;41.50;;;;;;;;5053016;28;45405;-59
2021/12/20 03:51:29;;;;;;;;;49.25;39.00;;;;;;;;5033059;28;47495;-59
2021/12/20 03:53:54;;;;;;;;;33.25;31.75;;;;;;;;5052774;28;45742;-59
2021/12/20 03:56:19;;;;;;;;;40.00;31.50;;;;;;;;5053418;28;45509;-59
2021/12/20 03:58:44;;;;;;;;;39.75;35.75;;;;;;;;5034241;28;45424;-59
2021/12/20 04:01:11;;;;;;;;;50.75;42.25;;;;;;;;5034408;28;47463;-58
2021/12/20 04:03:36;;;;;;;;;49.25;41.00;;;;;;;;5067544;28;46659;-58
2021/12/20 04:06:03;;;;;;;;;40.25;36.00;;;;;;;;5054989;28;45663;-59
2021/12/20 04:08:28;;;;;;;;;36.75;34.00;;;;;;;;5056173;28;45473;-59
2021/12/20 04:10:53;;;;;;;;;47.00;40.25;;;;;;;;5055367;28;45916;-58
2021/12/20 04:13:19;;;;;;;;;46.00;39.75;;;;;;;;5056102;28;45454;-59
2021/12/20 04:15:44;;;;;;;;;40.25;35.50;;;;;;;;5056032;28;45372;-58
2021/12/20 04:18:09;;;;;;;;;20.75;17.50;;;;;;;;5056523;28;46251;-59
2021/12/20 04:20:34;;;;;;;;;47.00;37.50;;;;;;;;5056448;28;46496;-58
2021/12/20 04:23:00;;;;;;;;;43.50;36.25;;;;;;;;5055911;28;45476;-58
2021/12/20 04:25:25;;;;;;;;;40.50;36.50;;;;;;;;5021281;28;45449;-59
2021/12/20 04:27:50;;;;;;;;;47.00;41.50;;;;;;;;5055866;28;45386;-59
2021/12/20 04:30:16;;;;;;;;;36.50;35.50;;;;;;;;5055215;28;45744;-59
2021/12/20 04:32:42;;;;;;;;;37.75;34.75;;;;;;;;5037487;28;45432;-59
2021/12/20 04:35:08;;;;;;;;;39.50;35.50;;;;;;;;5055476;28;45473;-59
2021/12/20 04:37:34;;;;;;;;;37.75;34.75;;;;;;;;5055389;28;45494;-59
2021/12/20 04:40:04;;;;;;;;;36.75;32.00;;;;;;;;5055006;28;45400;-59
2021/12/20 04:42:29;;;;;;;;;41.25;34.50;;;;;;;;5055625;28;45512;-59
2021/12/20 04:44:54;;;;;;;;;39.50;37.25;;;;;;;;5037223;28;45399;-57
2021/12/20 04:47:20;;;;;;;;;34.75;33.75;;;;;;;;5056013;28;45346;-60
2021/12/20 04:49:45;;;;;;;;;37.00;35.25;;;;;;;;5055297;28;45498;-60
2021/12/20 04:52:10;;;;;;;;;40.50;36.50;;;;;;;;5054772;28;45537;-59
2021/12/20 04:54:35;;;;;;;;;35.50;30.25;;;;;;;;5036740;28;45478;-59
2021/12/20 04:57:00;;;;;;;;;29.50;28.50;;;;;;;;5055341;28;45591;-59
2021/12/20 04:59:26;;;;;;;;;26.00;23.00;;;;;;;;5037248;28;48731;-59
2021/12/20 05:01:51;;;;;;;;;31.50;29.00;;;;;;;;5036569;28;46415;-59
2021/12/20 05:04:16;;;;;;;;;29.25;21.50;;;;;;;;5053670;28;45539;-59
2021/12/20 05:06:41;;;;;;;;;31.75;28.50;;;;;;;;5055273;28;45627;-58
2021/12/20 05:09:07;;;;;;;;;27.00;26.50;;;;;;;;5036995;28;47444;-59
2021/12/20 05:11:34;;;;;;;;;28.25;25.00;;;;;;;;5055377;28;45499;-58
2021/12/20 05:14:00;;;;;;;;;25.50;22.25;;;;;;;;5036936;28;45356;-59
2021/12/20 05:16:25;;;;;;;;;31.00;26.75;;;;;;;;5035584;28;45529;-59
2021/12/20 05:18:51;;;;;;;;;30.25;28.75;;;;;;;;5054655;28;45673;-59
2021/12/20 05:21:16;;;;;;;;;29.00;27.25;;;;;;;;5054926;28;45443;-59
2021/12/20 05:23:41;;;;;;;;;29.00;22.00;;;;;;;;5055517;28;45395;-60
2021/12/20 05:26:06;;;;;;;;;31.75;27.25;;;;;;;;5037026;28;45532;-58
2021/12/20 05:28:31;;;;;;;;;26.75;21.50;;;;;;;;5054638;28;46152;-59
2021/12/20 05:30:57;;;;;;;;;27.00;24.00;;;;;;;;5053562;28;45695;-58
2021/12/20 05:33:22;;;;;;;;;34.75;28.75;;;;;;;;5036059;28;45473;-59
2021/12/20 05:35:48;;;;;;;;;30.50;26.25;;;;;;;;5054669;28;45485;-59
2021/12/20 05:38:13;;;;;;;;;31.75;27.75;;;;;;;;5036931;28;48909;-59
2021/12/20 05:40:38;;;;;;;;;32.50;25.75;;;;;;;;5036546;28;45304;-59
2021/12/20 05:43:04;;;;;;;;;35.50;30.75;;;;;;;;5036571;28;45387;-59
2021/12/20 05:45:29;;;;;;;;;27.75;26.25;;;;;;;;5036788;28;45445;-60
2021/12/20 05:47:54;;;;;;;;;30.50;24.50;;;;;;;;5036037;28;47460;-59
2021/12/20 05:50:20;;;;;;;;;31.25;28.00;;;;;;;;5055334;28;45054;-59
2021/12/20 05:52:46;;;;;;;;;26.50;22.75;;;;;;;;5054808;28;45390;-59
2021/12/20 05:55:11;;;;;;;;;37.50;27.50;;;;;;;;5054605;28;45381;-59
2021/12/20 05:57:37;;;;;;;;;30.75;26.25;;;;;;;;5035959;28;48634;-59
2021/12/20 06:00:05;;;;;;;;;26.25;21.00;;;;;;;;5035878;28;45534;-59
2021/12/20 06:02:30;;;;;;;;;29.50;26.75;;;;;;;;5054688;28;45405;-59
2021/12/20 06:04:56;;;;;;;;;25.75;22.50;;;;;;;;5036405;28;45444;-57
2021/12/20 06:07:21;;;;;;;;;29.75;27.75;;;;;;;;5069787;28;48201;-59
2021/12/20 06:09:47;;;;;;;;;25.25;24.00;;;;;;;;5054219;28;45440;-58
2021/12/20 06:12:12;;;;;;;;;26.25;22.25;;;;;;;;5054494;28;45580;-59
2021/12/20 06:14:37;;;;;;;;;32.50;29.50;;;;;;;;5054911;28;45568;-59
2021/12/20 06:17:03;;;;;;;;;36.00;31.25;;;;;;;;5054337;28;45944;-60
2021/12/20 06:19:28;;;;;;;;;37.50;33.00;;;;;;;;5053291;28;45488;-60
2021/12/20 06:21:54;;;;;;;;;32.25;28.25;;;;;;;;5054301;28;45444;-60
2021/12/20 06:24:20;;;;;;;;;28.25;28.25;;;;;;;;5053039;28;45377;-60
2021/12/20 06:26:46;;;;;;;;;36.75;31.25;;;;;;;;5035975;28;47484;-60
2021/12/20 06:29:11;;;;;;;;;31.50;25.25;;;;;;;;5035050;28;46133;-60
2021/12/20 06:31:36;;;;;;;;;30.00;24.25;;;;;;;;5053728;28;45534;-60
2021/12/20 06:34:01;;;;;;;;;31.75;28.75;;;;;;;;5053552;28;45358;-59
2021/12/20 06:36:29;;;;;;;;;32.50;31.50;;;;;;;;5053773;28;45734;-60
2021/12/20 06:38:56;;;;;;;;;34.75;33.25;;;;;;;;5053327;28;45678;-60
2021/12/20 06:41:21;;;;;;;;;39.25;30.75;;;;;;;;5054095;28;45509;-59
2021/12/20 06:43:46;;;;;;;;;35.75;30.00;;;;;;;;5053214;28;45260;-59
2021/12/20 06:46:13;;;;;;;;;34.75;31.00;;;;;;;;5053175;28;45379;-59
2021/12/20 06:48:38;;;;;;;;;26.50;25.25;;;;;;;;5053842;28;45449;-60
2021/12/20 06:51:03;;;;;;;;;31.00;27.50;;;;;;;;5053918;28;45497;-61
2021/12/20 06:53:29;;;;;;;;;35.00;30.00;;;;;;;;5054501;28;45406;-60
2021/12/20 06:55:54;;;;;;;;;33.50;28.75;;;;;;;;5052774;28;45558;-59
2021/12/20 06:58:19;;;;;;;;;33.50;29.25;;;;;;;;5034824;28;45549;-59
2021/12/20 07:00:44;;;;;;;;;30.75;27.25;;;;;;;;5035862;28;45426;-60
2021/12/20 07:03:10;;;;;;;;;30.75;29.50;;;;;;;;5046772;28;45481;-59
2021/12/20 07:05:35;;;;;;;;;30.75;28.00;;;;;;;;5027067;28;45433;-59
2021/12/20 07:08:02;;;;;;;;;36.75;28.25;;;;;;;;5044771;28;45737;-59
2021/12/20 07:10:30;;;;;;;;;31.75;25.75;;;;;;;;5047237;28;45579;-60
2021/12/20 07:12:55;;;;;;;;;32.50;26.75;;;;;;;;5034788;28;45674;-59
2021/12/20 07:15:21;;;;;;;;;30.25;27.25;;;;;;;;5050184;28;46593;-58
2021/12/20 07:17:46;;;;;;;;;33.00;28.75;;;;;;;;5049440;28;45545;-58
2021/12/20 07:20:12;;;;;;;;;26.50;26.25;;;;;;;;5049499;28;45572;-59
2021/12/20 07:22:38;;;;;;;;;33.25;29.75;;;;;;;;5031708;28;45679;-59
2021/12/20 07:25:03;;;;;;;;;25.50;25.25;;;;;;;;5034307;28;47607;-59
2021/12/20 07:27:30;;;;;;;;;21.50;20.75;;;;;;;;5052463;28;45503;-59
2021/12/20 07:29:55;;;;;;;;;28.00;26.25;;;;;;;;5056138;28;45419;-61
2021/12/20 07:32:21;;;;;;;;;21.50;21.00;;;;;;;;5046346;28;45622;-59
2021/12/20 07:34:46;;;;;;;;;28.25;22.50;;;;;;;;5049759;28;45480;-59
2021/12/20 07:37:11;;;;;;;;;15.75;14.50;;;;;;;;5047731;28;45393;-59
2021/12/20 07:39:36;;;;;;;;;14.75;13.75;;;;;;;;5051926;28;45534;-60
2021/12/20 07:42:02;;;;;;;;;0.50;0.50;;;;;;;;5055080;28;45472;-59
2021/12/20 07:44:27;;;;;;;;;13.00;12.50;;;;;;;;5044398;28;46435;-59
2021/12/20 07:46:52;;;;;;;;;14.75;13.00;;;;;;;;5033302;28;46092;-60
2021/12/20 07:49:19;;;;;;;;;10.00;10.00;;;;;;;;5033179;28;45484;-59
2021/12/20 07:51:45;;;;;;;;;8.25;8.00;;;;;;;;5045263;28;45571;-60
2021/12/20 07:54:10;;;;;;;;;11.50;10.25;;;;;;;;5035831;28;47484;-60
2021/12/20 07:56:36;;;;;;;;;13.00;13.00;;;;;;;;5024227;28;45398;-59
2021/12/20 07:59:01;;;;;;;;;10.25;10.25;;;;;;;;5052164;28;45318;-60
2021/12/20 08:01:27;;;;;;;;;16.00;13.25;;;;;;;;5047325;28;45594;-59
2021/12/20 08:03:52;;;;;;;;;12.75;8.50;;;;;;;;5030380;28;46372;-58
2021/12/20 08:06:17;;;;;;;;;17.25;17.25;;;;;;;;5054746;28;45515;-60
2021/12/20 08:08:43;;;;;;;;;11.50;9.75;;;;;;;;5058846;27;45527;-58
2021/12/20 08:11:08;;;;;;;;;15.75;15.50;;;;;;;;5033791;28;45489;-59
2021/12/20 08:13:34;;;;;;;;;18.25;15.75;;;;;;;;5051391;28;45484;-58
2021/12/20 08:16:02;;;;;;;;;15.25;13.75;;;;;;;;5055023;28;45480;-61
2021/12/20 08:18:27;;;;;;;;;21.25;18.50;;;;;;;;5053563;28;45477;-60
2021/12/20 08:20:52;;;;;;;;;19.00;17.25;;;;;;;;5031115;28;45526;-58
2021/12/20 08:23:18;;;;;;;;;18.50;15.00;;;;;;;;5051632;28;45794;-58
2021/12/20 08:25:43;;;;;;;;;19.50;17.50;;;;;;;;5051586;28;46710;-60
2021/12/20 08:28:09;;;;;;;;;23.50;20.25;;;;;;;;5050889;28;46518;-59
2021/12/20 08:30:35;;;;;;;;;29.00;24.00;;;;;;;;5033891;28;45605;-61
2021/12/20 08:33:02;;;;;;;;;19.25;15.75;;;;;;;;5035232;28;47618;-60
2021/12/20 08:35:27;;;;;;;;;18.25;17.75;;;;;;;;5017006;28;45470;-60
2021/12/20 08:37:57;;;;;;;;;25.50;23.00;;;;;;;;5031659;28;47615;-59
2021/12/20 08:40:22;;;;;;;;;25.00;21.75;;;;;;;;5029875;28;45585;-59
2021/12/20 08:42:48;;;;;;;;;25.00;21.50;;;;;;;;5052012;28;46400;-61
2021/12/20 08:45:14;;;;;;;;;24.50;19.25;;;;;;;;5034960;28;45587;-59
2021/12/20 08:47:40;;;;;;;;;22.00;20.75;;;;;;;;5050778;28;45439;-59
2021/12/20 08:50:07;;;;;;;;;25.75;25.50;;;;;;;;5054499;28;45549;-58
2021/12/20 08:52:32;;;;;;;;;26.75;22.50;;;;;;;;5054632;28;47963;-61
2021/12/20 08:54:57;;;;;;;;;21.75;17.25;;;;;;;;5054094;28;45386;-61
2021/12/20 08:57:23;;;;;;;;;18.50;16.25;;;;;;;;5052167;28;45956;-66
2021/12/20 08:59:48;;;;;;;;;24.25;22.75;;;;;;;;5035578;28;45398;-66
2021/12/20 09:02:13;;;;;;;;;30.25;25.25;;;;;;;;5050826;28;45452;-67
2021/12/20 09:04:39;;;;;;;;;21.25;19.50;;;;;;;;5052633;28;45469;-68
2021/12/20 09:07:05;;;;;;;;;16.25;14.25;;;;;;;;5029523;28;45899;-68
2021/12/20 09:09:36;;;;;;;;;25.50;23.50;;;;;;;;5036367;28;45822;-67
2021/12/20 09:12:03;;;;;;;;;16.00;15.00;;;;;;;;5045805;28;46674;-62
2021/12/20 09:14:28;;;;;;;;;23.00;19.75;;;;;;;;5055089;28;45512;-62
2021/12/20 09:16:54;;;;;;;;;23.50;19.25;;;;;;;;5054349;28;45456;-62
2021/12/20 09:19:19;;;;;;;;;31.75;30.25;;;;;;;;5054068;28;45665;-62
2021/12/20 09:21:44;;;;;;;;;20.75;20.00;;;;;;;;5054484;28;46465;-63
2021/12/20 09:24:10;;;;;;;;;22.25;19.25;;;;;;;;5054766;28;45359;-63
2021/12/20 09:26:35;;;;;;;;;27.00;23.25;;;;;;;;5055674;28;45406;-62
2021/12/20 09:29:00;;;;;;;;;26.00;22.75;;;;;;;;5054944;28;45537;-62
2021/12/20 09:31:25;;;;;;;;;24.75;22.75;;;;;;;;5036990;28;48851;-62
2021/12/20 09:33:50;;;;;;;;;23.50;20.50;;;;;;;;5054789;28;45422;-62
2021/12/20 09:36:16;;;;;;;;;20.00;20.00;;;;;;;;5054937;28;45422;-62
2021/12/20 09:38:41;;;;;;;;;29.75;26.00;;;;;;;;5055652;28;45352;-62
2021/12/20 09:43:40;;;;;;;;;29.25;23.25;;;;;;;;5054929;28;45418;-62
2021/12/20 09:46:05;;;;;;;;;15.75;14.75;;;;;;;;5035994;28;45351;-63
2021/12/20 09:48:31;;;;;;;;;22.75;19.00;;;;;;;;5055017;28;45431;-62
2021/12/20 09:50:57;;;;;;;;;24.25;19.00;;;;;;;;5055210;28;45653;-62
2021/12/20 09:53:23;;;;;;;;;22.00;20.00;;;;;;;;5055011;28;45701;-62
2021/12/20 09:55:49;;;;;;;;;18.00;14.00;;;;;;;;5054759;28;45510;-63
2021/12/20 09:58:14;;;;;;;;;21.25;18.25;;;;;;;;5054589;28;45509;-62
2021/12/20 10:00:40;;;;;;;;;18.25;15.00;;;;;;;;5054358;28;45830;-63
2021/12/20 10:03:06;;;;;;;;;19.00;14.00;;;;;;;;5054058;28;45449;-62
2021/12/20 10:05:31;;;;;;;;;17.75;16.00;;;;;;;;5055427;28;45354;-62
2021/12/20 10:07:58;;;;;;;;;19.75;18.25;;;;;;;;5054302;28;45525;-62
2021/12/20 10:10:52;;;;;;;;;18.25;17.75;;;;;;;;5053964;28;46468;-62
2021/12/20 10:13:25;;;;;;;;;22.00;21.00;;;;;;;;5036176;28;45586;-63
2021/12/20 10:15:51;;;;;;;;;18.50;18.00;;;;;;;;5053524;28;45509;-63
2021/12/20 10:18:17;;;;;;;;;20.00;19.50;;;;;;;;5036473;28;44903;-62
2021/12/20 10:20:48;;;;;;;;;28.25;20.75;;;;;;;;5036405;28;47935;-62
2021/12/20 10:23:19;;;;;;;;;21.00;20.50;;;;;;;;5054134;28;45413;-62
2021/12/20 10:25:45;;;;;;;;;21.00;19.00;;;;;;;;5054256;28;45413;-61
2021/12/20 10:28:13;;;;;;;;;16.75;16.75;;;;;;;;5035949;28;45434;-61
2021/12/20 10:30:40;;;;;;;;;20.75;19.75;;;;;;;;5054128;28;46227;-61
2021/12/20 10:33:11;;;;;;;;;34.25;26.00;;;;;;;;5035561;28;45516;-62
2021/12/20 10:35:38;;;;;;;;;25.75;21.75;;;;;;;;5054199;28;45992;-61
2021/12/20 10:38:05;;;;;;;;;24.50;22.25;;;;;;;;5035632;28;49984;-62
2021/12/20 10:40:30;;;;;;;;;23.75;21.75;;;;;;;;5053893;28;46709;-62
2021/12/20 10:42:57;;;;;;;;;20.50;18.75;;;;;;;;5035795;28;45591;-61
2021/12/20 10:45:24;;;;;;;;;13.75;13.75;;;;;;;;5054308;28;45283;-61
2021/12/20 10:47:53;;;;;;;;;21.25;19.25;;;;;;;;5035884;28;45403;-63
2021/12/20 10:50:22;;;;;;;;;11.00;11.00;;;;;;;;5053409;28;45688;-62
2021/12/20 10:52:47;;;;;;;;;14.25;11.50;;;;;;;;5035452;28;45555;-62
2021/12/20 10:55:13;;;;;;;;;12.25;12.00;;;;;;;;5053412;28;45536;-63
2021/12/20 10:57:38;;;;;;;;;8.00;7.50;;;;;;;;5054578;28;45441;-63
2021/12/20 11:00:22;;;;;;;;;13.50;11.75;;;;;;;;5053983;28;47974;-62
2021/12/20 11:03:23;;;;;;;;;8.00;8.00;;;;;;;;5050625;28;45372;-63
2021/12/20 11:06:13;;;;;;;;;9.00;9.00;;;;;;;;5050838;28;45503;-62
2021/12/20 11:11:23;;;;;;;;;13.00;11.25;;;;;;;;5053761;28;45920;-62
2021/12/20 11:13:48;;;;;;;;;8.00;8.00;;;;;;;;5053639;28;45493;-62
2021/12/20 11:16:27;;;;;;;;;7.25;7.00;;;;;;;;5056332;28;45388;-62
2021/12/20 11:19:11;;;;;;;;;11.25;8.00;;;;;;;;5056649;28;45567;-63
2021/12/20 11:21:38;;;;;;;;;10.25;10.25;;;;;;;;5056829;28;45417;-62
2021/12/20 11:24:03;;;;;;;;;11.25;11.25;;;;;;;;5056741;28;45338;-61
2021/12/20 11:26:29;;;;;;;;;12.00;9.00;;;;;;;;5057488;28;45430;-61
2021/12/20 11:28:54;;;;;;;;;12.75;11.25;;;;;;;;5038618;28;45429;-61
2021/12/20 11:31:20;;;;;;;;;8.25;8.00;;;;;;;;5056372;28;46454;-61
2021/12/20 11:33:45;;;;;;;;;13.00;11.75;;;;;;;;5038201;28;45438;-62
2021/12/20 11:36:10;;;;;;;;;15.75;12.00;;;;;;;;5056937;28;45218;-62
2021/12/20 11:38:35;;;;;;;;;15.00;13.50;;;;;;;;5057572;28;45399;-61
2021/12/20 11:41:01;;;;;;;;;13.25;12.75;;;;;;;;5056907;28;45349;-63
2021/12/20 11:43:26;;;;;;;;;17.25;16.00;;;;;;;;5056443;28;45389;-63
2021/12/20 11:45:52;;;;;;;;;14.75;13.50;;;;;;;;5056812;28;45441;-62
2021/12/20 11:48:20;;;;;;;;;14.50;13.50;;;;;;;;5057076;28;45417;-62
2021/12/20 11:50:45;;;;;;;;;17.25;17.25;;;;;;;;5057075;28;45723;-62
2021/12/20 11:53:12;;;;;;;;;13.25;11.00;;;;;;;;5038562;28;45450;-62
2021/12/20 11:55:39;;;;;;;;;16.75;16.75;;;;;;;;5056500;28;45540;-62
2021/12/20 11:58:15;;;;;;;;;17.75;16.00;;;;;;;;5056634;28;45352;-62
2021/12/20 12:00:46;;;;;;;;;21.50;16.25;;;;;;;;5056510;28;46503;-62
2021/12/20 12:03:14;;;;;;;;;21.25;19.25;;;;;;;;5056456;28;45469;-62
2021/12/20 12:05:54;;;;;;;;;22.25;19.00;;;;;;;;5056997;28;45306;-61
2021/12/20 12:08:21;;;;;;;;;19.75;15.75;;;;;;;;5056371;28;45577;-61
2021/12/20 12:10:46;;;;;;;;;19.00;17.75;;;;;;;;5056091;28;46162;-62
2021/12/20 12:13:15;;;;;;;;;18.25;16.00;;;;;;;;5056267;28;45647;-62
2021/12/20 12:15:53;;;;;;;;;17.75;15.00;;;;;;;;5056661;28;45419;-62
2021/12/20 12:18:18;;;;;;;;;13.75;13.00;;;;;;;;5040946;28;45399;-62
2021/12/20 12:20:51;;;;;;;;;24.00;19.00;;;;;;;;5056352;28;46246;-62
2021/12/20 12:23:23;;;;;;;;;12.50;11.50;;;;;;;;5055545;28;46062;-62
2021/12/20 12:26:00;;;;;;;;;16.75;15.75;;;;;;;;5055439;28;45575;-62
2021/12/20 12:28:27;;;;;;;;;16.50;13.25;;;;;;;;5055967;28;45543;-66
2021/12/20 12:31:03;;;;;;;;;17.50;13.75;;;;;;;;5037409;28;47702;-64
2021/12/20 12:33:30;;;;;;;;;16.25;15.00;;;;;;;;5055790;28;45741;-63
2021/12/20 12:35:57;;;;;;;;;22.50;21.00;;;;;;;;5055761;28;45457;-64
2021/12/20 12:38:22;;;;;;;;;19.00;16.75;;;;;;;;5038500;28;45410;-63
2021/12/20 12:40:52;;;;;;;;;17.75;16.00;;;;;;;;5037558;28;47341;-63
2021/12/20 12:43:21;;;;;;;;;20.75;18.00;;;;;;;;5037279;28;46322;-64
2021/12/20 12:45:47;;;;;;;;;17.00;17.00;;;;;;;;5055665;28;45383;-63
2021/12/20 12:48:30;;;;;;;;;18.25;17.25;;;;;;;;5055665;28;45521;-63
2021/12/20 12:50:55;;;;;;;;;17.75;17.75;;;;;;;;5053810;28;45817;-63
2021/12/20 12:53:40;;;;;;;;;20.25;18.75;;;;;;;;5055937;28;45491;-63
2021/12/20 12:56:26;;;;;;;;;22.75;19.75;;;;;;;;5055320;28;45416;-63
2021/12/20 12:59:10;;;;;;;;;21.25;21.25;;;;;;;;5047486;28;45510;-65
2021/12/20 13:01:37;;;;;;;;;17.00;15.00;;;;;;;;5054775;28;45774;-63
2021/12/20 13:04:02;;;;;;;;;21.25;20.75;;;;;;;;5054743;28;45445;-64
2021/12/20 13:06:28;;;;;;;;;18.75;15.75;;;;;;;;5037345;28;45382;-62
2021/12/20 13:08:53;;;;;;;;;24.25;21.75;;;;;;;;5055342;28;45390;-63
2021/12/20 13:11:19;;;;;;;;;31.75;23.25;;;;;;;;5055847;28;46485;-61
2021/12/20 13:13:53;;;;;;;;;25.50;24.75;;;;;;;;5055325;28;45691;-62
2021/12/20 13:16:23;;;;;;;;;26.50;25.25;;;;;;;;5056802;28;45637;-63
2021/12/20 13:18:51;;;;;;;;;21.75;19.50;;;;;;;;5063985;28;45633;-63
2021/12/20 13:21:20;;;;;;;;;28.50;25.00;;;;;;;;5038415;28;48618;-63
2021/12/20 13:23:49;;;;;;;;;23.00;18.25;;;;;;;;5072409;27;45643;-63
2021/12/20 13:26:20;;;;;;;;;18.75;16.50;;;;;;;;5052966;28;45492;-63
2021/12/20 13:28:50;;;;;;;;;21.25;20.00;;;;;;;;5032625;28;45842;-63
2021/12/20 13:31:15;;;;;;;;;20.75;18.00;;;;;;;;5054529;28;45266;-63
2021/12/20 13:33:48;;;;;;;;;22.75;19.50;;;;;;;;5052848;28;45657;-63
2021/12/20 13:36:14;;;;;;;;;25.00;20.25;;;;;;;;5045532;28;45660;-63
2021/12/20 13:38:40;;;;;;;;;22.75;22.25;;;;;;;;5040406;27;45506;-64
2021/12/20 13:41:16;;;;;;;;;24.50;21.00;;;;;;;;5051192;28;45623;-63
2021/12/20 13:43:58;;;;;;;;;27.25;26.00;;;;;;;;5035699;28;45615;-64
2021/12/20 13:46:28;;;;;;;;;18.25;18.25;;;;;;;;5046801;28;45503;-64
2021/12/20 13:48:57;;;;;;;;;15.00;15.00;;;;;;;;5032747;28;45679;-64
2021/12/20 13:51:29;;;;;;;;;17.00;11.00;;;;;;;;5044770;28;46548;-63
2021/12/20 13:53:55;;;;;;;;;16.00;15.75;;;;;;;;5036161;28;45931;-63
2021/12/20 13:56:20;;;;;;;;;14.00;14.00;;;;;;;;5050572;28;45319;-63
2021/12/20 13:58:46;;;;;;;;;15.75;15.75;;;;;;;;5048793;28;45303;-62
2021/12/20 14:01:12;;;;;;;;;14.25;14.25;;;;;;;;5045341;28;46751;-63
2021/12/20 14:03:38;;;;;;;;;18.75;16.00;;;;;;;;5028152;28;45314;-62
2021/12/20 14:06:03;;;;;;;;;13.50;12.50;;;;;;;;5049666;28;45540;-62
2021/12/20 14:08:28;;;;;;;;;14.25;12.50;;;;;;;;5035628;28;45496;-62
2021/12/20 14:10:54;;;;;;;;;13.25;12.25;;;;;;;;5052045;28;45564;-62
2021/12/20 14:13:20;;;;;;;;;17.75;14.00;;;;;;;;5053452;28;45648;-62
2021/12/20 14:15:56;;;;;;;;;8.75;8.50;;;;;;;;5053731;28;45811;-62
2021/12/20 14:18:25;;;;;;;;;14.25;13.75;;;;;;;;5038004;28;45366;-61
2021/12/20 14:20:56;;;;;;;;;14.25;12.00;;;;;;;;5054139;28;46385;-61
2021/12/20 14:23:24;;;;;;;;;16.50;15.25;;;;;;;;5054345;28;45474;-61
2021/12/20 14:25:52;;;;;;;;;15.75;14.75;;;;;;;;5054330;28;45319;-62
2021/12/20 14:28:19;;;;;;;;;20.25;16.00;;;;;;;;5035879;28;45522;-61
2021/12/20 14:30:46;;;;;;;;;9.50;9.50;;;;;;;;5053961;28;46575;-63
2021/12/20 14:33:17;;;;;;;;;8.25;7.50;;;;;;;;5034552;28;46278;-62
2021/12/20 14:35:48;;;;;;;;;6.50;6.50;;;;;;;;5048582;28;45366;-62
2021/12/20 14:38:33;;;;;;;;;8.75;8.25;;;;;;;;5053917;28;45477;-62